Time;durP1;ratioP1;P1;durP2;ratioP2;P2;SDS_P1;SDS_P2;PMS_P1;PMS_P2;Temp;Humidity;BMP_temperature;BMP_pressure;BME280_temperature;BME280_humidity;BME280_pressure;Samples;Min_cycle;Max_cycle;Signal;HPM_P1;HPM_P2
2020/12/02 00:00:41;;;;;;;69.73;28.77;;;3.60;99.90;;;;;;6249978;28;20045;-76
2020/12/02 00:03:49;;;;;;;89.43;29.77;;;3.70;99.90;;;;;;6250011;28;20060;-73
2020/12/02 00:06:51;;;;;;;78.90;29.52;;;3.80;99.90;;;;;;6249778;28;20053;-76
2020/12/02 00:09:53;;;;;;;106.50;32.63;;;3.70;99.90;;;;;;6251717;28;20057;-76
2020/12/02 00:12:55;;;;;;;89.77;32.17;;;3.70;99.90;;;;;;6258852;28;20124;-75
2020/12/02 00:16:43;;;;;;;86.17;32.83;;;3.70;99.90;;;;;;6282072;28;20093;-75
2020/12/02 00:19:44;;;;;;;99.00;33.40;;;3.80;99.90;;;;;;6279816;28;20104;-74
2020/12/02 00:22:45;;;;;;;91.40;32.17;;;3.70;99.90;;;;;;6280120;28;20113;-75
2020/12/02 00:25:47;;;;;;;88.63;30.90;;;3.70;99.90;;;;;;6280662;28;20093;-74
2020/12/02 00:28:50;;;;;;;93.13;33.57;;;3.70;99.90;;;;;;6278013;28;20037;-74
2020/12/02 00:31:51;;;;;;;79.13;31.47;;;3.70;99.90;;;;;;6277804;28;20063;-75
2020/12/02 00:34:52;;;;;;;85.40;30.93;;;3.80;99.90;;;;;;6249478;28;20072;-75
2020/12/02 00:37:53;;;;;;;88.07;32.73;;;3.80;99.90;;;;;;6248876;28;20053;-75
2020/12/02 00:40:55;;;;;;;76.33;29.00;;;3.80;99.90;;;;;;6248933;28;20049;-75
2020/12/02 00:43:57;;;;;;;71.23;33.27;;;3.80;99.90;;;;;;6248949;28;20045;-75
2020/12/02 00:50:56;;;;;;;89.37;32.57;;;3.70;99.90;;;;;;6248339;28;20034;-74
2020/12/02 00:53:57;;;;;;;88.60;33.33;;;3.60;99.90;;;;;;6246513;28;20061;-76
2020/12/02 00:56:59;;;;;;;78.03;33.17;;;3.60;99.90;;;;;;6248355;28;20046;-75
2020/12/02 01:00:06;;;;;;;100.33;34.20;;;3.50;99.90;;;;;;6248275;28;20057;-75
2020/12/02 01:03:14;;;;;;;96.05;33.60;;;3.60;99.90;;;;;;6249596;28;20041;-75
2020/12/02 01:06:17;;;;;;;93.57;36.35;;;3.60;99.90;;;;;;6248973;28;20054;-75
2020/12/02 01:09:19;;;;;;;82.90;32.93;;;3.70;99.90;;;;;;6247565;28;20124;-75
2020/12/02 01:12:20;;;;;;;87.50;34.60;;;3.70;99.90;;;;;;6249274;28;20050;-75
2020/12/02 01:15:23;;;;;;;93.30;31.43;;;3.70;99.90;;;;;;6247961;28;20179;-76
2020/12/02 01:18:26;;;;;;;87.47;34.93;;;3.60;99.90;;;;;;6248050;28;20049;-75
2020/12/02 01:21:33;;;;;;;79.27;31.67;;;3.70;99.90;;;;;;6247608;28;20045;-75
2020/12/02 01:24:39;;;;;;;89.47;34.20;;;3.70;99.90;;;;;;6247203;28;20420;-75
2020/12/02 01:27:46;;;;;;;86.00;32.20;;;3.60;99.90;;;;;;6246972;28;20502;-75
2020/12/02 01:30:49;;;;;;;85.80;33.23;;;3.60;99.90;;;;;;6247598;28;20053;-75
2020/12/02 01:33:51;;;;;;;78.40;32.20;;;3.60;99.90;;;;;;6247745;28;20132;-75
2020/12/02 01:37:17;;;;;;;78.17;33.37;;;3.50;99.90;;;;;;6246865;28;20045;-75
2020/12/02 01:40:20;;;;;;;83.97;31.27;;;3.50;99.90;;;;;;6246724;28;20057;-75
2020/12/02 01:43:21;;;;;;;68.80;29.53;;;3.50;99.90;;;;;;6246654;28;20510;-75
2020/12/02 01:46:33;;;;;;;77.27;31.83;;;3.40;99.90;;;;;;6247284;28;20049;-76
2020/12/02 01:49:42;;;;;;;82.70;31.70;;;3.40;99.90;;;;;;6246361;28;20038;-74
2020/12/02 01:52:54;;;;;;;68.30;28.17;;;3.40;99.90;;;;;;6246613;28;20049;-75
2020/12/02 01:55:59;;;;;;;75.73;29.43;;;3.40;99.90;;;;;;6246535;28;20124;-75
2020/12/02 01:59:10;;;;;;;65.00;28.70;;;3.30;99.90;;;;;;6246805;28;20053;-75
2020/12/02 02:02:20;;;;;;;70.93;28.33;;;3.30;99.90;;;;;;6246934;28;20045;-75
2020/12/02 02:05:28;;;;;;;68.13;27.27;;;3.20;99.90;;;;;;6245843;28;20184;-75
2020/12/02 02:08:33;;;;;;;73.00;29.97;;;3.20;99.90;;;;;;6246503;28;20045;-75
2020/12/02 02:11:42;;;;;;;67.87;30.47;;;3.30;99.90;;;;;;6246584;28;20045;-75
2020/12/02 02:14:49;;;;;;;82.33;30.37;;;3.30;99.90;;;;;;6246132;28;20140;-75
2020/12/02 02:17:56;;;;;;;96.97;35.10;;;3.20;99.90;;;;;;6246774;28;20095;-75
2020/12/02 02:21:00;;;;;;;99.57;33.60;;;3.20;99.90;;;;;;6246239;28;20068;-75
2020/12/02 02:24:02;;;;;;;98.40;33.47;;;3.10;99.90;;;;;;6246208;28;20049;-75
2020/12/02 02:27:05;;;;;;;102.20;35.17;;;3.10;99.90;;;;;;6245072;28;20049;-75
2020/12/02 02:30:06;;;;;;;87.63;28.90;;;3.10;99.90;;;;;;6244579;28;20482;-75
2020/12/02 02:33:08;;;;;;;77.50;32.53;;;3.20;99.90;;;;;;6246067;28;20392;-75
2020/12/02 02:36:11;;;;;;;81.97;30.37;;;3.30;99.90;;;;;;6245684;28;20046;-75
2020/12/02 02:39:14;;;;;;;77.17;29.77;;;3.30;99.90;;;;;;6245449;28;20539;-75
2020/12/02 02:42:32;;;;;;;79.47;31.63;;;3.30;99.90;;;;;;6246120;28;20071;-76
2020/12/02 02:45:33;;;;;;;79.97;32.23;;;3.30;99.90;;;;;;6245337;28;20053;-75
2020/12/02 02:48:35;;;;;;;75.57;30.80;;;3.30;99.90;;;;;;6245720;28;20454;-75
2020/12/02 02:51:37;;;;;;;77.03;29.67;;;3.30;99.90;;;;;;6245444;28;20053;-75
2020/12/02 02:54:38;;;;;;;79.43;30.70;;;3.30;99.90;;;;;;6245723;28;20132;-75
2020/12/02 02:57:40;;;;;;;76.00;31.47;;;3.30;99.90;;;;;;6244932;28;20124;-75
2020/12/02 03:00:43;;;;;;;85.23;31.83;;;3.30;99.90;;;;;;6244858;28;20128;-75
2020/12/02 03:03:44;;;;;;;75.47;32.63;;;3.30;99.90;;;;;;6244923;28;20511;-75
2020/12/02 03:06:46;;;;;;;75.90;32.13;;;3.20;99.90;;;;;;6244489;28;20057;-75
2020/12/02 03:09:47;;;;;;;82.27;30.77;;;3.20;99.90;;;;;;6245541;28;20187;-75
2020/12/02 03:12:49;;;;;;;67.47;30.70;;;3.30;99.90;;;;;;6244688;28;20507;-75
2020/12/02 03:15:51;;;;;;;76.40;30.80;;;3.20;99.90;;;;;;6244814;28;20132;-75
2020/12/02 03:18:57;;;;;;;68.73;31.30;;;3.20;99.90;;;;;;6249478;28;20141;-75
2020/12/02 03:22:04;;;;;;;65.30;31.53;;;3.20;99.90;;;;;;6250596;28;20605;-75
2020/12/02 03:25:05;;;;;;;53.13;22.90;;;3.20;99.90;;;;;;6250451;28;20052;-76
2020/12/02 03:28:08;;;;;;;76.90;32.57;;;3.20;99.90;;;;;;6249741;28;20041;-75
2020/12/02 03:31:12;;;;;;;68.07;31.87;;;3.10;99.90;;;;;;6250264;28;20100;-75
2020/12/02 03:34:16;;;;;;;74.63;31.90;;;3.10;99.90;;;;;;6250206;28;20045;-75
2020/12/02 03:37:17;;;;;;;77.87;31.60;;;3.10;99.90;;;;;;6249650;28;20446;-76
2020/12/02 03:40:18;;;;;;;63.33;30.97;;;3.10;99.90;;;;;;6250090;28;20042;-75
2020/12/02 03:43:21;;;;;;;73.47;30.33;;;3.10;99.90;;;;;;6250943;28;20041;-75
2020/12/02 03:46:23;;;;;;;56.70;30.77;;;3.10;99.90;;;;;;6250145;28;20058;-75
2020/12/02 03:49:24;;;;;;;74.07;33.83;;;3.10;99.90;;;;;;6249459;28;20584;-75
2020/12/02 03:52:25;;;;;;;74.90;33.73;;;3.20;99.90;;;;;;6249314;28;20196;-75
2020/12/02 03:55:27;;;;;;;71.80;31.87;;;3.10;99.90;;;;;;6249533;28;20049;-75
2020/12/02 03:58:29;;;;;;;71.67;32.53;;;3.10;99.90;;;;;;6249687;28;20052;-75
2020/12/02 04:01:30;;;;;;;71.03;31.50;;;3.10;99.90;;;;;;6249501;28;20050;-75
2020/12/02 04:04:32;;;;;;;74.13;33.47;;;3.00;99.90;;;;;;6248908;28;20570;-75
2020/12/02 04:07:33;;;;;;;74.40;32.90;;;3.00;99.90;;;;;;6249079;28;20041;-75
2020/12/02 04:10:35;;;;;;;79.23;33.73;;;3.00;99.90;;;;;;6249168;28;20534;-74
2020/12/02 04:13:37;;;;;;;70.50;34.10;;;3.00;99.90;;;;;;6248924;28;20045;-75
2020/12/02 04:16:38;;;;;;;73.60;29.97;;;3.00;99.90;;;;;;6254686;28;20049;-75
2020/12/02 04:19:40;;;;;;;76.63;34.87;;;3.00;99.90;;;;;;6253077;28;20053;-74
2020/12/02 04:22:41;;;;;;;68.70;31.27;;;3.00;99.90;;;;;;6251014;28;20466;-75
2020/12/02 04:25:42;;;;;;;84.23;34.10;;;3.00;99.90;;;;;;6250704;28;20041;-75
2020/12/02 04:28:44;;;;;;;67.13;32.03;;;3.00;99.90;;;;;;6248369;28;20175;-75
2020/12/02 04:31:46;;;;;;;74.87;33.57;;;3.00;99.90;;;;;;6249103;28;20049;-75
2020/12/02 04:34:47;;;;;;;67.67;26.87;;;3.00;99.90;;;;;;6248768;28;20489;-75
2020/12/02 04:37:48;;;;;;;69.97;31.33;;;3.00;99.90;;;;;;6249259;28;20050;-75
2020/12/02 04:40:50;;;;;;;79.43;32.57;;;3.00;99.90;;;;;;6248413;28;20525;-75
2020/12/02 04:43:54;;;;;;;68.37;30.47;;;3.00;99.90;;;;;;6248348;28;20179;-75
2020/12/02 04:46:56;;;;;;;81.17;32.87;;;3.10;99.90;;;;;;6248087;28;20049;-75
2020/12/02 04:49:58;;;;;;;79.40;36.37;;;3.10;99.90;;;;;;6249149;28;20132;-75
2020/12/02 04:53:06;;;;;;;76.70;31.83;;;3.10;99.90;;;;;;6247694;28;20187;-75
2020/12/02 04:56:07;;;;;;;;;;;3.10;99.90;;;;;;6248802;28;20045;-75
2020/12/02 04:59:09;;;;;;;76.50;33.57;;;3.10;99.90;;;;;;6247567;28;20015;-75
2020/12/02 05:02:23;;;;;;;69.03;30.47;;;3.00;99.90;;;;;;6248449;28;20057;-75
2020/12/02 05:05:24;;;;;;;76.77;32.77;;;3.00;99.90;;;;;;6247307;28;20466;-75
2020/12/02 05:08:28;;;;;;;67.23;31.70;;;3.00;99.90;;;;;;6247424;28;20575;-75
2020/12/02 05:11:29;;;;;;;64.63;28.07;;;3.00;99.90;;;;;;6247296;28;20041;-75
2020/12/02 05:14:35;;;;;;;74.33;32.83;;;3.00;99.90;;;;;;6248267;28;20160;-75
2020/12/02 05:17:36;;;;;;;75.63;33.07;;;3.00;99.90;;;;;;6247116;28;20128;-75
2020/12/02 05:20:38;;;;;;;64.57;29.43;;;3.00;99.90;;;;;;6247157;28;20101;-75
2020/12/02 05:23:39;;;;;;;69.60;32.53;;;3.00;99.90;;;;;;6247404;28;20049;-75
2020/12/02 05:26:44;;;;;;;66.00;31.10;;;3.00;99.90;;;;;;6247308;28;20128;-75
2020/12/02 05:29:53;;;;;;;64.90;31.27;;;3.00;99.90;;;;;;6247360;28;20054;-75
2020/12/02 05:33:17;;;;;;;62.57;31.27;;;3.10;99.90;;;;;;6246930;28;20045;-75
2020/12/02 05:36:22;;;;;;;57.57;29.43;;;3.10;99.90;;;;;;6246751;28;20045;-75
2020/12/02 05:39:41;;;;;;;47.07;24.00;;;3.10;99.90;;;;;;6246663;28;20072;-75
2020/12/02 05:42:54;;;;;;;50.23;27.70;;;3.10;99.90;;;;;;6247238;28;20179;-75
2020/12/02 05:45:59;;;;;;;46.10;23.90;;;3.10;99.90;;;;;;6247155;28;20054;-75
2020/12/02 05:49:05;;;;;;;55.47;26.93;;;3.10;99.90;;;;;;6246325;28;20499;-75
2020/12/02 05:52:13;;;;;;;60.13;28.53;;;3.10;99.90;;;;;;6246666;28;20140;-75
2020/12/02 05:55:21;;;;;;;50.20;27.75;;;3.10;99.90;;;;;;6246674;28;20472;-75
2020/12/02 05:58:26;;;;;;;53.10;27.83;;;3.00;99.90;;;;;;6247180;28;20126;-74
2020/12/02 06:01:29;;;;;;;61.53;30.37;;;3.00;99.90;;;;;;6246758;28;20046;-74
2020/12/02 06:04:31;;;;;;;56.37;29.77;;;3.10;99.90;;;;;;6246167;28;20554;-74
2020/12/02 06:07:46;;;;;;;56.83;28.67;;;3.10;99.90;;;;;;6245852;28;20072;-74
2020/12/02 06:11:05;;;;;;;47.43;24.50;;;3.10;99.90;;;;;;6246103;28;20526;-74
2020/12/02 06:14:29;;;;;;;61.40;29.60;;;3.10;99.90;;;;;;6246550;28;20053;-73
2020/12/02 06:17:32;;;;;;;46.97;24.47;;;3.00;99.90;;;;;;6246372;28;20073;-74
2020/12/02 06:20:33;;;;;;;62.50;30.00;;;2.90;99.90;;;;;;6246294;28;20152;-74
2020/12/02 06:23:39;;;;;;;57.40;30.03;;;2.80;99.90;;;;;;6246145;28;20063;-74
2020/12/02 06:26:43;;;;;;;58.33;28.07;;;2.80;99.90;;;;;;6245844;28;20100;-74
2020/12/02 06:29:47;;;;;;;53.93;28.03;;;2.80;99.90;;;;;;6246428;28;20056;-74
2020/12/02 06:33:17;;;;;;;55.43;28.20;;;2.80;99.90;;;;;;6245993;28;20132;-74
2020/12/02 06:36:24;;;;;;;58.17;32.27;;;2.90;99.90;;;;;;6245448;28;20053;-74
2020/12/02 06:39:29;;;;;;;60.07;29.60;;;2.90;99.90;;;;;;6245991;28;20057;-74
2020/12/02 06:42:33;;;;;;;36.13;20.73;;;2.90;99.90;;;;;;6246188;28;20046;-74
2020/12/02 06:45:36;;;;;;;48.87;26.73;;;2.90;99.90;;;;;;6245910;28;20128;-75
2020/12/02 06:48:39;;;;;;;49.07;26.37;;;2.90;99.90;;;;;;6211455;28;20045;-74
2020/12/02 06:51:53;;;;;;;48.27;26.40;;;3.00;99.90;;;;;;6244660;28;20072;-74
2020/12/02 06:55:11;;;;;;;50.50;27.23;;;3.00;99.90;;;;;;6245680;28;20049;-74
2020/12/02 06:58:15;;;;;;;41.75;24.60;;;2.90;99.90;;;;;;6245672;28;20564;-75
2020/12/02 07:01:21;;;;;;;51.07;27.60;;;2.90;99.90;;;;;;6245816;28;20034;-74
2020/12/02 07:04:23;;;;;;;47.97;22.47;;;2.80;99.90;;;;;;6240196;28;20049;-75
2020/12/02 07:07:25;;;;;;;42.17;24.73;;;2.90;99.90;;;;;;6225654;28;20046;-75
2020/12/02 07:10:26;;;;;;;40.00;24.00;;;2.90;99.90;;;;;;6241449;28;20142;-75
2020/12/02 07:13:30;;;;;;;41.93;23.87;;;2.90;99.90;;;;;;6236995;28;20462;-75
2020/12/02 07:16:33;;;;;;;41.33;23.67;;;2.80;99.90;;;;;;6220370;28;20076;-75
2020/12/02 07:19:39;;;;;;;41.00;23.33;;;2.80;99.90;;;;;;6220977;28;20073;-74
2020/12/02 07:22:48;;;;;;;43.10;22.90;;;2.80;99.90;;;;;;6221121;28;20061;-74
2020/12/02 07:25:50;;;;;;;44.07;22.43;;;2.80;99.90;;;;;;6221361;28;20077;-74
2020/12/02 07:28:59;;;;;;;40.13;23.50;;;2.90;99.90;;;;;;6220232;28;20045;-74
2020/12/02 07:32:04;;;;;;;39.70;23.60;;;2.80;99.90;;;;;;6221105;28;20124;-74
2020/12/02 07:35:15;;;;;;;47.67;28.00;;;2.80;99.90;;;;;;6223656;28;20129;-74
2020/12/02 07:38:16;;;;;;;39.03;23.67;;;2.90;99.90;;;;;;6227464;28;20045;-74
2020/12/02 07:41:20;;;;;;;41.47;23.77;;;2.80;99.90;;;;;;6246772;28;20175;-74
2020/12/02 07:44:22;;;;;;;40.50;21.00;;;2.90;99.90;;;;;;6246075;28;20571;-74
2020/12/02 07:47:23;;;;;;;34.27;22.10;;;2.90;99.90;;;;;;6246181;28;20056;-75
2020/12/02 07:50:31;;;;;;;38.60;23.23;;;2.90;99.90;;;;;;6245458;28;20534;-74
2020/12/02 07:53:39;;;;;;;;;;;2.90;99.90;;;;;;6245407;28;20456;-74
2020/12/02 07:56:41;;;;;;;35.23;22.70;;;2.90;99.90;;;;;;6244615;28;19921;-74
2020/12/02 07:59:48;;;;;;;40.90;22.53;;;2.90;99.90;;;;;;6244977;28;20189;-74
2020/12/02 08:02:50;;;;;;;39.57;21.03;;;2.90;99.90;;;;;;6246052;28;20450;-74
2020/12/02 08:05:56;;;;;;;36.93;21.40;;;2.90;99.90;;;;;;6249824;28;20061;-75
2020/12/02 08:08:57;;;;;;;38.97;20.77;;;2.90;99.90;;;;;;6249143;28;20049;-74
2020/12/02 08:12:02;;;;;;;42.63;25.07;;;2.90;99.90;;;;;;6249080;28;20064;-75
2020/12/02 08:15:06;;;;;;;45.23;23.07;;;2.90;99.90;;;;;;6248436;28;20049;-75
2020/12/02 08:18:14;;;;;;;40.63;24.33;;;2.90;99.90;;;;;;6251455;28;20045;-75
2020/12/02 08:21:16;;;;;;;42.35;23.77;;;2.90;99.90;;;;;;6250169;28;20431;-75
2020/12/02 08:24:27;;;;;;;31.23;20.20;;;2.90;99.90;;;;;;6250849;28;20049;-76
2020/12/02 08:27:30;;;;;;;38.60;22.17;;;3.00;99.90;;;;;;6249522;28;20049;-76
2020/12/02 08:30:32;;;;;;;40.40;21.10;;;3.00;99.90;;;;;;6248875;28;20075;-75
2020/12/02 08:33:33;;;;;;;40.27;23.87;;;3.00;99.90;;;;;;6250200;28;20160;-75
2020/12/02 08:36:34;;;;;;;43.90;25.23;;;3.00;99.90;;;;;;6249345;28;20076;-75
2020/12/02 08:39:36;;;;;;;41.40;23.23;;;3.00;99.90;;;;;;6249437;28;20049;-75
2020/12/02 08:42:41;;;;;;;49.90;25.17;;;3.00;99.90;;;;;;6250843;28;20057;-76
2020/12/02 08:45:55;;;;;;;33.93;22.43;;;3.00;99.90;;;;;;6250766;28;20418;-76
2020/12/02 08:49:00;;;;;;;43.60;22.83;;;3.00;99.90;;;;;;6250533;28;20052;-76
2020/12/02 08:52:01;;;;;;;40.37;24.17;;;3.10;99.90;;;;;;6250559;28;20084;-76
2020/12/02 08:55:03;;;;;;;40.43;22.50;;;3.10;99.90;;;;;;6250056;28;21091;-76
2020/12/02 08:58:05;;;;;;;45.97;25.83;;;3.10;99.90;;;;;;6252087;28;20045;-75
2020/12/02 09:01:06;;;;;;;40.00;24.70;;;3.10;99.90;;;;;;6250783;28;20181;-76
2020/12/02 09:04:08;;;;;;;38.90;21.17;;;3.20;99.90;;;;;;6250075;28;20038;-76
2020/12/02 09:07:10;;;;;;;42.70;22.83;;;3.20;99.90;;;;;;6249870;28;20057;-76
2020/12/02 09:10:11;;;;;;;43.93;24.00;;;3.20;99.90;;;;;;6250390;28;20049;-76
2020/12/02 09:13:14;;;;;;;37.57;21.63;;;3.20;99.90;;;;;;6248795;28;20503;-76
2020/12/02 09:16:27;;;;;;;50.07;23.20;;;3.40;99.90;;;;;;6249169;28;20099;-75
2020/12/02 09:19:28;;;;;;;32.60;22.10;;;3.40;99.90;;;;;;6250519;28;20077;-76
2020/12/02 09:22:29;;;;;;;39.60;24.60;;;3.50;99.90;;;;;;6250176;28;20045;-76
2020/12/02 09:25:31;;;;;;;27.17;20.70;;;3.50;99.90;;;;;;6250200;28;20180;-75
2020/12/02 09:28:33;;;;;;;42.23;21.27;;;3.60;99.90;;;;;;6249166;28;20046;-75
2020/12/02 09:31:35;;;;;;;40.77;22.83;;;3.60;99.90;;;;;;6249663;28;20041;-74
2020/12/02 09:34:37;;;;;;;36.63;21.10;;;3.60;99.90;;;;;;6246084;28;20057;-74
2020/12/02 09:37:38;;;;;;;38.13;22.57;;;3.50;99.90;;;;;;6270585;28;20052;-74
2020/12/02 09:40:40;;;;;;;36.77;22.27;;;3.60;99.90;;;;;;6270346;28;20041;-75
2020/12/02 09:44:00;;;;;;;38.70;22.63;;;3.70;99.90;;;;;;6264998;28;20135;-75
2020/12/02 09:47:06;;;;;;;40.20;22.17;;;3.80;99.90;;;;;;6266740;28;20110;-75
2020/12/02 09:50:08;;;;;;;36.83;22.63;;;4.50;99.90;;;;;;6270338;28;20146;-74
2020/12/02 09:53:19;;;;;;;32.20;22.27;;;3.90;99.90;;;;;;6269331;28;20056;-74
2020/12/02 09:56:20;;;;;;;34.60;20.67;;;3.80;99.90;;;;;;6271000;28;20040;-75
2020/12/02 09:59:23;;;;;;;33.90;21.60;;;3.90;99.90;;;;;;6260681;28;20061;-74
2020/12/02 10:02:43;;;;;;;30.23;20.70;;;3.80;99.90;;;;;;6255369;28;20443;-76
2020/12/02 10:06:02;;;;;;;37.90;21.60;;;3.80;99.90;;;;;;6272038;28;20090;-75
2020/12/02 10:09:28;;;;;;;38.08;24.25;;;3.80;99.90;;;;;;6264900;28;20127;-75
2020/12/02 10:12:52;;;;;;;37.87;21.67;;;3.80;99.90;;;;;;6242128;28;20055;-75
2020/12/02 10:16:04;;;;;;;36.23;21.63;;;3.70;99.90;;;;;;6251969;28;20422;-75
2020/12/02 10:19:34;;;;;;;32.55;19.83;;;3.80;99.90;;;;;;6264776;28;20057;-76
2020/12/02 10:23:02;;;;;;;37.00;21.67;;;3.90;99.90;;;;;;6238815;28;20094;-75
2020/12/02 10:26:42;;;;;;;36.72;22.25;;;3.90;99.90;;;;;;6256893;28;20056;-76
2020/12/02 10:30:11;;;;;;;34.83;20.27;;;3.90;99.90;;;;;;6229549;28;20052;-75
2020/12/02 10:33:28;;;;;;;31.40;18.80;;;3.90;99.90;;;;;;6268009;28;20126;-76
2020/12/02 10:36:33;;;;;;;38.83;20.07;;;3.90;99.90;;;;;;6261402;28;20060;-76
2020/12/02 10:39:35;;;;;;;31.43;18.77;;;3.90;99.90;;;;;;6251699;28;20053;-76
2020/12/02 10:42:50;;;;;;;36.00;22.20;;;4.00;99.90;;;;;;6261822;28;20044;-76
2020/12/02 10:45:56;;;;;;;35.73;20.57;;;4.10;99.90;;;;;;6260103;28;20056;-77
2020/12/02 10:49:03;;;;;;;33.33;19.92;;;4.10;99.90;;;;;;6252842;28;20123;-76
2020/12/02 10:52:05;;;;;;;32.43;20.30;;;4.20;99.90;;;;;;6236419;28;20073;-76
2020/12/02 10:55:12;;;;;;;29.25;19.48;;;4.00;99.90;;;;;;6258404;28;20056;-75
2020/12/02 10:58:18;;;;;;;30.98;19.83;;;4.20;99.90;;;;;;6256807;28;20173;-77
2020/12/02 11:01:22;;;;;;;28.02;19.27;;;4.20;99.90;;;;;;6255475;28;20045;-75
2020/12/02 11:04:25;;;;;;;29.27;18.90;;;4.20;99.90;;;;;;6263462;28;20044;-76
2020/12/02 11:07:35;;;;;;;31.08;19.73;;;4.30;99.90;;;;;;6260861;28;20060;-76
2020/12/02 11:10:45;;;;;;;40.33;22.10;;;4.20;99.90;;;;;;6247834;28;20100;-76
2020/12/02 11:13:57;;;;;;;32.40;20.33;;;4.20;99.90;;;;;;6249965;28;20053;-76
2020/12/02 11:17:06;;;;;;;33.90;19.58;;;4.20;99.90;;;;;;6264165;28;20498;-76
2020/12/02 11:20:12;;;;;;;31.77;20.20;;;4.30;99.90;;;;;;6251431;28;20088;-76
2020/12/02 11:23:27;;;;;;;28.52;18.10;;;4.30;99.90;;;;;;6252554;28;20120;-76
2020/12/02 11:26:31;;;;;;;33.13;19.15;;;4.30;99.90;;;;;;6257909;28;20087;-76
2020/12/02 11:29:33;;;;;;;27.85;17.92;;;4.30;99.90;;;;;;6256391;28;20118;-76
2020/12/02 11:33:10;;;;;;;37.88;22.05;;;4.20;99.90;;;;;;6257276;28;20045;-76
2020/12/02 11:36:42;;;;;;;28.83;19.00;;;4.20;99.90;;;;;;6265439;28;20077;-75
2020/12/02 11:39:56;;;;;;;30.90;18.58;;;4.30;99.90;;;;;;6268218;28;20056;-76
2020/12/02 11:43:07;;;;;;;33.43;17.57;;;4.30;99.90;;;;;;6269220;28;20045;-75
2020/12/02 11:46:13;;;;;;;31.85;17.17;;;4.30;99.90;;;;;;6271087;28;20128;-76
2020/12/02 11:49:20;;;;;;;29.75;20.85;;;4.30;99.90;;;;;;6273636;28;20049;-75
2020/12/02 11:52:33;;;;;;;33.90;19.70;;;4.20;99.90;;;;;;6276942;28;20538;-76
2020/12/02 11:55:35;;;;;;;38.80;21.73;;;4.10;99.70;;;;;;6265148;28;20073;-75
2020/12/02 11:58:36;;;;;;;33.63;19.47;;;4.00;99.80;;;;;;6272625;28;20072;-75
2020/12/02 12:01:50;;;;;;;28.38;17.90;;;4.80;99.90;;;;;;6269859;28;20073;-75
2020/12/02 12:05:00;;;;;;;29.17;16.37;;;4.10;99.90;;;;;;6268449;28;20052;-75
2020/12/02 12:08:14;;;;;;;24.15;15.02;;;4.10;99.90;;;;;;6267335;28;20761;-76
2020/12/02 12:11:28;;;;;;;30.42;17.83;;;4.20;99.90;;;;;;6267387;28;20083;-76
2020/12/02 12:14:36;;;;;;;28.63;18.27;;;4.10;99.70;;;;;;6268023;28;20134;-75
2020/12/02 12:17:40;;;;;;;30.92;17.98;;;4.20;99.70;;;;;;6264147;28;20069;-76
2020/12/02 12:20:49;;;;;;;27.50;17.75;;;4.20;99.50;;;;;;6268996;28;20053;-76
2020/12/02 12:24:00;;;;;;;36.73;18.23;;;4.20;99.50;;;;;;6261247;28;20080;-76
2020/12/02 12:27:01;;;;;;;30.67;18.73;;;4.50;99.60;;;;;;6269557;28;20129;-76
2020/12/02 12:30:06;;;;;;;27.80;16.38;;;4.10;99.50;;;;;;6267533;28;20079;-75
2020/12/02 12:33:16;;;;;;;31.97;18.87;;;4.10;99.30;;;;;;6266547;28;20255;-76
2020/12/02 12:36:21;;;;;;;28.95;20.08;;;4.10;99.30;;;;;;6263731;28;20171;-77
2020/12/02 12:39:28;;;;;;;85.47;50.90;;;4.20;99.70;;;;;;6271230;28;20061;-76
2020/12/02 12:42:31;;;;;;;60.37;47.37;;;4.30;99.90;;;;;;6270109;28;20412;-76
2020/12/02 12:45:38;;;;;;;46.60;35.90;;;4.30;99.70;;;;;;6256929;28;20064;-75
2020/12/02 12:48:42;;;;;;;56.50;48.13;;;4.40;99.50;;;;;;6267414;28;20072;-77
2020/12/02 12:51:44;;;;;;;42.73;31.77;;;4.40;99.20;;;;;;6255828;28;20076;-77
2020/12/02 12:54:47;;;;;;;33.60;19.90;;;4.40;98.80;;;;;;6269062;28;20080;-77
2020/12/02 12:57:50;;;;;;;32.05;21.00;;;4.40;98.90;;;;;;6267161;28;20211;-77
2020/12/02 13:00:53;;;;;;;29.20;19.60;;;4.40;98.80;;;;;;6261744;28;20052;-77
2020/12/02 13:03:59;;;;;;;35.33;21.60;;;4.40;98.90;;;;;;6274257;28;20041;-78
2020/12/02 13:07:21;;;;;;;30.15;17.73;;;4.80;98.70;;;;;;6264444;28;20048;-78
2020/12/02 13:10:38;;;;;;;30.63;16.92;;;4.50;98.50;;;;;;6258319;28;20049;-78
2020/12/02 13:13:53;;;;;;;32.42;17.50;;;4.50;98.40;;;;;;6250410;28;20056;-78
2020/12/02 13:17:04;;;;;;;32.70;20.33;;;4.50;98.50;;;;;;6266043;28;20057;-78
2020/12/02 13:20:14;;;;;;;31.85;18.08;;;4.50;98.40;;;;;;6251502;28;20515;-78
2020/12/02 13:23:19;;;;;;;30.23;19.27;;;4.40;98.20;;;;;;6245314;28;20068;-78
2020/12/02 13:26:24;;;;;;;30.45;19.95;;;4.40;98.40;;;;;;6281035;28;20033;-77
2020/12/02 13:29:31;;;;;;;28.30;18.92;;;4.50;98.30;;;;;;6303906;28;20075;-76
2020/12/02 13:32:41;;;;;;;31.65;16.90;;;4.50;98.30;;;;;;6303834;28;20061;-77
2020/12/02 13:35:43;;;;;;;28.10;18.57;;;4.50;98.10;;;;;;6297688;28;20049;-76
2020/12/02 13:38:44;;;;;;;30.55;18.10;;;4.40;97.80;;;;;;6294965;28;20045;-76
2020/12/02 13:41:51;;;;;;;29.67;18.98;;;4.30;97.70;;;;;;6297809;28;20032;-73
2020/12/02 13:44:58;;;;;;;26.75;17.95;;;4.40;97.80;;;;;;6276952;28;20498;-75
2020/12/02 13:48:06;;;;;;;32.78;18.20;;;4.30;97.60;;;;;;6276412;28;20049;-75
2020/12/02 13:51:37;;;;;;;30.50;19.23;;;4.40;97.90;;;;;;6276563;28;20072;-75
2020/12/02 13:54:49;;;;;;;30.80;19.07;;;4.30;97.60;;;;;;6271048;28;20076;-76
2020/12/02 13:58:00;;;;;;;31.42;17.45;;;4.30;97.70;;;;;;6274832;28;20465;-77
2020/12/02 14:01:19;;;;;;;30.65;17.90;;;4.30;97.70;;;;;;6267171;28;20041;-76
2020/12/02 14:04:34;;;;;;;32.92;17.35;;;4.20;97.60;;;;;;6264512;28;20037;-76
2020/12/02 14:07:35;;;;;;;37.17;20.65;;;4.10;97.70;;;;;;6269078;28;20049;-77
2020/12/02 14:10:37;;;;;;;34.28;19.98;;;4.20;97.70;;;;;;6265175;28;20509;-75
2020/12/02 14:13:40;;;;;;;38.75;18.35;;;4.20;97.60;;;;;;6251948;28;20101;-76
2020/12/02 14:16:43;;;;;;;41.83;27.77;;;4.30;97.70;;;;;;6247533;22;20077;-77
2020/12/02 14:19:44;;;;;;;36.53;23.02;;;4.30;97.40;;;;;;6208855;28;20177;-75
2020/12/02 14:22:46;;;;;;;44.90;20.40;;;4.20;97.00;;;;;;6194797;28;20058;-75
2020/12/02 14:25:47;;;;;;;29.67;17.00;;;4.10;97.10;;;;;;6194837;28;20188;-75
2020/12/02 14:28:51;;;;;;;34.13;19.85;;;4.10;97.00;;;;;;6193882;28;20050;-76
2020/12/02 14:31:52;;;;;;;30.88;17.38;;;4.10;97.10;;;;;;6193926;28;20125;-76
2020/12/02 14:34:54;;;;;;;35.67;20.38;;;4.10;97.20;;;;;;6197480;28;20057;-76
2020/12/02 14:37:58;;;;;;;36.22;20.00;;;4.10;96.90;;;;;;6218914;28;20072;-75
2020/12/02 14:41:02;;;;;;;34.38;18.92;;;4.10;96.80;;;;;;6218235;28;20052;-75
2020/12/02 14:44:04;;;;;;;30.02;18.30;;;4.00;96.50;;;;;;6216162;28;20213;-75
2020/12/02 14:47:06;;;;;;;34.55;19.90;;;4.00;96.50;;;;;;6217700;28;20120;-75
2020/12/02 14:50:08;;;;;;;33.60;20.50;;;4.00;96.40;;;;;;6219011;28;20042;-76
2020/12/02 14:53:09;;;;;;;34.93;19.47;;;3.90;96.10;;;;;;6213622;28;20050;-76
2020/12/02 14:56:16;;;;;;;33.43;18.37;;;3.90;96.40;;;;;;6215588;28;20041;-76
2020/12/02 14:59:29;;;;;;;28.35;15.48;;;3.90;96.40;;;;;;6218813;28;20125;-75
2020/12/02 15:02:31;;;;;;;39.23;20.87;;;3.90;96.40;;;;;;6218084;28;20156;-75
2020/12/02 15:05:33;;;;;;;40.65;20.90;;;3.80;96.10;;;;;;6218243;28;20046;-75
2020/12/02 15:09:01;;;;;;;37.97;19.50;;;3.80;96.40;;;;;;6217951;28;20053;-76
2020/12/02 15:12:04;;;;;;;34.00;19.07;;;3.80;96.40;;;;;;6205628;28;20042;-76
2020/12/02 15:15:09;;;;;;;39.60;18.23;;;3.90;96.40;;;;;;6217340;28;20046;-75
2020/12/02 15:18:12;;;;;;;35.53;18.80;;;3.90;96.40;;;;;;6209869;28;20054;-76
2020/12/02 15:21:13;;;;;;;35.00;18.13;;;3.80;96.20;;;;;;6207768;28;20121;-76
2020/12/02 15:24:16;;;;;;;39.93;20.73;;;3.80;96.20;;;;;;6212787;28;20353;-76
2020/12/02 15:27:19;;;;;;;38.77;20.43;;;3.80;96.00;;;;;;6222842;28;20038;-76
2020/12/02 15:30:27;;;;;;;36.50;19.63;;;3.80;95.70;;;;;;6223171;28;20038;-76
2020/12/02 15:33:31;;;;;;;36.17;19.27;;;3.70;95.70;;;;;;6223717;28;20049;-77
2020/12/02 15:36:40;;;;;;;35.17;19.57;;;3.80;96.30;;;;;;6221853;28;20124;-76
2020/12/02 15:39:53;;;;;;;36.00;18.27;;;3.70;95.80;;;;;;6223110;28;20046;-76
2020/12/02 15:43:13;;;;;;;32.93;18.50;;;3.70;95.80;;;;;;6212100;28;20057;-76
2020/12/02 15:46:44;;;;;;;30.87;18.73;;;3.70;95.60;;;;;;6223043;28;20137;-76
2020/12/02 15:49:55;;;;;;;33.70;17.87;;;3.70;95.80;;;;;;6223041;28;20042;-76
2020/12/02 15:53:15;;;;;;;34.90;18.20;;;3.70;95.80;;;;;;6222659;28;20407;-76
2020/12/02 15:56:30;;;;;;;35.53;21.20;;;3.70;95.90;;;;;;6221666;28;20487;-75
2020/12/02 15:59:39;;;;;;;44.50;28.17;;;3.70;95.40;;;;;;6213926;28;20604;-75
2020/12/02 16:02:42;;;;;;;43.87;28.13;;;3.60;95.30;;;;;;6200219;28;20076;-75